sensor_id;sensor_type;location;lat;lon;timestamp;pressure;altitude;pressure_sealevel;temperature
43802;BMP280;29429;51.074;13.764;2023-04-15T00:00:57;98844.13;;;8.35
43802;BMP280;29429;51.074;13.764;2023-04-15T00:03:25;98855.00;;;8.34
43802;BMP280;29429;51.074;13.764;2023-04-15T00:05:52;98854.94;;;8.40
43802;BMP280;29429;51.074;13.764;2023-04-15T00:08:19;98843.06;;;8.43
43802;BMP280;29429;51.074;13.764;2023-04-15T00:10:51;98830.59;;;8.43
43802;BMP280;29429;51.074;13.764;2023-04-15T00:13:35;98827.72;;;8.45
43802;BMP280;29429;51.074;13.764;2023-04-15T00:16:07;98831.00;;;8.47
43802;BMP280;29429;51.074;13.764;2023-04-15T00:18:36;98819.00;;;8.38
43802;BMP280;29429;51.074;13.764;2023-04-15T00:21:06;98832.44;;;8.43
43802;BMP280;29429;51.074;13.764;2023-04-15T00:23:33;98817.56;;;8.35
43802;BMP280;29429;51.074;13.764;2023-04-15T00:26:02;98831.59;;;8.49
43802;BMP280;29429;51.074;13.764;2023-04-15T00:28:29;98830.19;;;8.46
43802;BMP280;29429;51.074;13.764;2023-04-15T00:30:57;98829.78;;;8.43
43802;BMP280;29429;51.074;13.764;2023-04-15T00:33:24;98829.38;;;8.46
43802;BMP280;29429;51.074;13.764;2023-04-15T00:35:51;98832.25;;;8.44
43802;BMP280;29429;51.074;13.764;2023-04-15T00:38:18;98830.19;;;8.46
43802;BMP280;29429;51.074;13.764;2023-04-15T00:40:45;98822.03;;;8.41
43802;BMP280;29429;51.074;13.764;2023-04-15T00:43:12;98827.31;;;8.48
43802;BMP280;29429;51.074;13.764;2023-04-15T00:45:39;98817.16;;;8.38
43802;BMP280;29429;51.074;13.764;2023-04-15T00:48:08;98827.34;;;8.41
43802;BMP280;29429;51.074;13.764;2023-04-15T00:50:37;98819.59;;;8.40
43802;BMP280;29429;51.074;13.764;2023-04-15T00:53:04;98817.97;;;8.39
43802;BMP280;29429;51.074;13.764;2023-04-15T00:55:31;98813.91;;;8.36
43802;BMP280;29429;51.074;13.764;2023-04-15T00:57:58;98809.78;;;8.40
43802;BMP280;29429;51.074;13.764;2023-04-15T01:00:25;98810.78;;;8.46
43802;BMP280;29429;51.074;13.764;2023-04-15T01:02:52;98816.69;;;8.48
43802;BMP280;29429;51.074;13.764;2023-04-15T01:05:20;98807.28;;;8.45
43802;BMP280;29429;51.074;13.764;2023-04-15T01:07:47;98810.34;;;8.49
43802;BMP280;29429;51.074;13.764;2023-04-15T01:10:15;98810.34;;;8.49
43802;BMP280;29429;51.074;13.764;2023-04-15T01:12:42;98788.09;;;8.43
43802;BMP280;29429;51.074;13.764;2023-04-15T01:15:10;98793.75;;;8.53
43802;BMP280;29429;51.074;13.764;2023-04-15T01:17:38;98799.06;;;8.53
43802;BMP280;29429;51.074;13.764;2023-04-15T01:20:07;98800.88;;;8.60
43802;BMP280;29429;51.074;13.764;2023-04-15T01:22:37;98806.84;;;8.55
43802;BMP280;29429;51.074;13.764;2023-04-15T01:25:17;98793.16;;;8.51
43802;BMP280;29429;51.074;13.764;2023-04-15T01:27:45;98786.63;;;8.47
43802;BMP280;29429;51.074;13.764;2023-04-15T01:30:12;98785.59;;;8.55
43802;BMP280;29429;51.074;13.764;2023-04-15T01:32:39;98794.31;;;8.62
43802;BMP280;29429;51.074;13.764;2023-04-15T01:35:07;98777.22;;;8.51
43802;BMP280;29429;51.074;13.764;2023-04-15T01:37:35;98783.94;;;8.54
43802;BMP280;29429;51.074;13.764;2023-04-15T01:40:04;98782.09;;;8.54
43802;BMP280;29429;51.074;13.764;2023-04-15T01:42:31;98782.09;;;8.54
43802;BMP280;29429;51.074;13.764;2023-04-15T01:44:59;98789.66;;;8.57
43802;BMP280;29429;51.074;13.764;2023-04-15T01:47:27;98784.38;;;8.51
43802;BMP280;29429;51.074;13.764;2023-04-15T01:49:55;98776.22;;;8.46
43802;BMP280;29429;51.074;13.764;2023-04-15T01:52:22;98784.75;;;8.54
43802;BMP280;29429;51.074;13.764;2023-04-15T01:54:50;98779.44;;;8.54
43802;BMP280;29429;51.074;13.764;2023-04-15T01:57:18;98767.84;;;8.49
43802;BMP280;29429;51.074;13.764;2023-04-15T01:59:45;98763.53;;;8.48
43802;BMP280;29429;51.074;13.764;2023-04-15T02:02:14;98776.16;;;8.52
43802;BMP280;29429;51.074;13.764;2023-04-15T02:04:41;98757.63;;;8.46
43802;BMP280;29429;51.074;13.764;2023-04-15T02:07:08;98759.47;;;8.45
43802;BMP280;29429;51.074;13.764;2023-04-15T02:09:35;98769.25;;;8.51
43802;BMP280;29429;51.074;13.764;2023-04-15T02:12:02;98753.72;;;8.48
43802;BMP280;29429;51.074;13.764;2023-04-15T02:14:29;98761.88;;;8.53
43802;BMP280;29429;51.074;13.764;2023-04-15T02:16:56;98753.31;;;8.51
43802;BMP280;29429;51.074;13.764;2023-04-15T02:19:23;98763.28;;;8.56
43802;BMP280;29429;51.074;13.764;2023-04-15T02:21:50;98762.63;;;8.61
43802;BMP280;29429;51.074;13.764;2023-04-15T02:24:17;98759.34;;;8.65
43802;BMP280;29429;51.074;13.764;2023-04-15T02:26:44;98758.44;;;8.71
43802;BMP280;29429;51.074;13.764;2023-04-15T02:29:12;98753.94;;;8.72
43802;BMP280;29429;51.074;13.764;2023-04-15T02:31:39;98740.66;;;8.72
43802;BMP280;29429;51.074;13.764;2023-04-15T02:34:08;98751.44;;;8.77
43802;BMP280;29429;51.074;13.764;2023-04-15T02:36:35;98747.34;;;8.81
43802;BMP280;29429;51.074;13.764;2023-04-15T02:39:16;98751.44;;;8.77
43802;BMP280;29429;51.074;13.764;2023-04-15T02:41:51;98751.09;;;8.73
43802;BMP280;29429;51.074;13.764;2023-04-15T03:01:41;98758.25;;;8.73
43802;BMP280;29429;51.074;13.764;2023-04-15T03:04:13;98742.50;;;8.71
43802;BMP280;29429;51.074;13.764;2023-04-15T03:07:03;98742.06;;;8.74
43802;BMP280;29429;51.074;13.764;2023-04-15T03:09:44;98734.31;;;8.73
43802;BMP280;29429;51.074;13.764;2023-04-15T03:12:33;98741.25;;;8.74
43802;BMP280;29429;51.074;13.764;2023-04-15T03:15:16;98734.75;;;8.70
43802;BMP280;29429;51.074;13.764;2023-04-15T03:17:47;98728.44;;;8.71
43802;BMP280;29429;51.074;13.764;2023-04-15T03:20:40;98720.72;;;8.63
43802;BMP280;29429;51.074;13.764;2023-04-15T03:23:54;98742.56;;;8.65
43802;BMP280;29429;51.074;13.764;2023-04-15T03:26:28;98739.25;;;8.69
43802;BMP280;29429;51.074;13.764;2023-04-15T03:28:59;98736.41;;;8.71
43802;BMP280;29429;51.074;13.764;2023-04-15T03:31:27;98727.81;;;8.69
43802;BMP280;29429;51.074;13.764;2023-04-15T03:33:54;98727.38;;;8.72
43802;BMP280;29429;51.074;13.764;2023-04-15T03:36:22;98733.91;;;8.76
43802;BMP280;29429;51.074;13.764;2023-04-15T03:38:49;98721.47;;;8.70
43802;BMP280;29429;51.074;13.764;2023-04-15T03:41:17;98729.84;;;8.73
43802;BMP280;29429;51.074;13.764;2023-04-15T03:44:09;98718.22;;;8.68
43802;BMP280;29429;51.074;13.764;2023-04-15T03:46:36;98726.78;;;8.70
43802;BMP280;29429;51.074;13.764;2023-04-15T03:49:06;98727.66;;;8.64
43802;BMP280;29429;51.074;13.764;2023-04-15T03:51:33;98714.19;;;8.58
43802;BMP280;29429;51.074;13.764;2023-04-15T03:54:00;98713.78;;;8.62
43802;BMP280;29429;51.074;13.764;2023-04-15T03:56:28;98701.56;;;8.54
43802;BMP280;29429;51.074;13.764;2023-04-15T03:58:55;98720.56;;;8.57
43802;BMP280;29429;51.074;13.764;2023-04-15T04:01:22;98703.25;;;8.48
43802;BMP280;29429;51.074;13.764;2023-04-15T04:03:49;98714.63;;;8.55
43802;BMP280;29429;51.074;13.764;2023-04-15T04:06:17;98706.94;;;8.47
43802;BMP280;29429;51.074;13.764;2023-04-15T04:08:44;98723.00;;;8.59
43802;BMP280;29429;51.074;13.764;2023-04-15T04:11:11;98726.06;;;8.56
43802;BMP280;29429;51.074;13.764;2023-04-15T04:13:39;98716.53;;;8.48
43802;BMP280;29429;51.074;13.764;2023-04-15T04:16:06;98729.16;;;8.53
43802;BMP280;29429;51.074;13.764;2023-04-15T04:18:34;98714.13;;;8.47
43802;BMP280;29429;51.074;13.764;2023-04-15T04:21:01;98719.78;;;8.50
43802;BMP280;29429;51.074;13.764;2023-04-15T04:23:29;98723.81;;;8.60
43802;BMP280;29429;51.074;13.764;2023-04-15T04:25:56;98721.31;;;8.65
43802;BMP280;29429;51.074;13.764;2023-04-15T04:28:24;98714.34;;;8.64
43802;BMP280;29429;51.074;13.764;2023-04-15T04:30:51;98722.50;;;8.69
43802;BMP280;29429;51.074;13.764;2023-04-15T04:33:18;98722.94;;;8.66
43802;BMP280;29429;51.074;13.764;2023-04-15T04:35:45;98722.56;;;8.62
43802;BMP280;29429;51.074;13.764;2023-04-15T04:38:12;98731.94;;;8.65
43802;BMP280;29429;51.074;13.764;2023-04-15T04:40:40;98727.06;;;8.62
43802;BMP280;29429;51.074;13.764;2023-04-15T04:43:07;98720.28;;;8.66
43802;BMP280;29429;51.074;13.764;2023-04-15T04:45:34;98731.09;;;8.71
43802;BMP280;29429;51.074;13.764;2023-04-15T04:48:01;98730.81;;;8.79
43802;BMP280;29429;51.074;13.764;2023-04-15T04:50:28;98728.72;;;8.81
43802;BMP280;29429;51.074;13.764;2023-04-15T04:52:55;98731.81;;;8.78
43802;BMP280;29429;51.074;13.764;2023-04-15T04:55:23;98725.31;;;8.74
43802;BMP280;29429;51.074;13.764;2023-04-15T04:57:50;98742.78;;;8.88
43802;BMP280;29429;51.074;13.764;2023-04-15T05:00:18;98740.25;;;8.93
43802;BMP280;29429;51.074;13.764;2023-04-15T05:02:46;98736.59;;;8.94
43802;BMP280;29429;51.074;13.764;2023-04-15T05:05:14;98735.34;;;8.96
43802;BMP280;29429;51.074;13.764;2023-04-15T05:07:43;98734.47;;;9.02
43802;BMP280;29429;51.074;13.764;2023-04-15T05:10:16;98737.63;;;9.11
43802;BMP280;29429;51.074;13.764;2023-04-15T05:12:53;98747.53;;;9.22
43802;BMP280;29429;51.074;13.764;2023-04-15T05:15:20;98730.84;;;9.15
43802;BMP280;29429;51.074;13.764;2023-04-15T05:17:50;98745.03;;;9.27
43802;BMP280;29429;51.074;13.764;2023-04-15T05:20:17;98738.53;;;9.23
43802;BMP280;29429;51.074;13.764;2023-04-15T05:22:44;98741.34;;;9.28
43802;BMP280;29429;51.074;13.764;2023-04-15T05:25:12;98737.06;;;9.27
43802;BMP280;29429;51.074;13.764;2023-04-15T05:27:41;98750.06;;;9.35
43802;BMP280;29429;51.074;13.764;2023-04-15T05:30:08;98751.59;;;9.43
43802;BMP280;29429;51.074;13.764;2023-04-15T05:32:39;98749.78;;;9.43
43802;BMP280;29429;51.074;13.764;2023-04-15T05:35:06;98752.88;;;9.40
43802;BMP280;29429;51.074;13.764;2023-04-15T05:37:34;98748.38;;;9.41
43802;BMP280;29429;51.074;13.764;2023-04-15T05:40:01;98758.34;;;9.45
43802;BMP280;29429;51.074;13.764;2023-04-15T05:42:28;98744.09;;;9.40
43802;BMP280;29429;51.074;13.764;2023-04-15T05:44:56;98737.13;;;9.39
43802;BMP280;29429;51.074;13.764;2023-04-15T05:47:23;98754.06;;;9.44
43802;BMP280;29429;51.074;13.764;2023-04-15T05:49:50;98773.22;;;9.53
43802;BMP280;29429;51.074;13.764;2023-04-15T05:52:17;98757.91;;;9.48
43802;BMP280;29429;51.074;13.764;2023-04-15T05:54:44;98765.44;;;9.51
43802;BMP280;29429;51.074;13.764;2023-04-15T05:57:12;98771.13;;;9.55
43802;BMP280;29429;51.074;13.764;2023-04-15T05:59:39;98771.50;;;9.58
43802;BMP280;29429;51.074;13.764;2023-04-15T06:02:09;98777.00;;;9.63
43802;BMP280;29429;51.074;13.764;2023-04-15T06:04:36;98788.34;;;9.70
43802;BMP280;29429;51.074;13.764;2023-04-15T06:07:04;98780.81;;;9.67
43802;BMP280;29429;51.074;13.764;2023-04-15T06:09:31;98784.06;;;9.69
43802;BMP280;29429;51.074;13.764;2023-04-15T06:11:58;98788.13;;;9.72
43802;BMP280;29429;51.074;13.764;2023-04-15T06:14:28;98787.34;;;9.71
43802;BMP280;29429;51.074;13.764;2023-04-15T06:16:56;98800.09;;;9.81
43802;BMP280;29429;51.074;13.764;2023-04-15T06:19:28;98786.06;;;9.74
43802;BMP280;29429;51.074;13.764;2023-04-15T06:21:57;98795.47;;;9.76
43802;BMP280;29429;51.074;13.764;2023-04-15T06:24:28;98787.69;;;9.75
43802;BMP280;29429;51.074;13.764;2023-04-15T06:26:59;98806.41;;;9.87
43802;BMP280;29429;51.074;13.764;2023-04-15T06:29:46;98794.09;;;9.86
43802;BMP280;29429;51.074;13.764;2023-04-15T06:32:23;98783.13;;;9.82
43802;BMP280;29429;51.074;13.764;2023-04-15T06:35:05;98790.88;;;9.84
43802;BMP280;29429;51.074;13.764;2023-04-15T06:37:42;98809.91;;;9.99
43802;BMP280;29429;51.074;13.764;2023-04-15T06:40:18;98794.88;;;9.93
43802;BMP280;29429;51.074;13.764;2023-04-15T06:42:58;98796.59;;;9.99
43802;BMP280;29429;51.074;13.764;2023-04-15T06:45:34;98796.16;;;10.02
43802;BMP280;29429;51.074;13.764;2023-04-15T06:48:07;98809.56;;;10.13
43802;BMP280;29429;51.074;13.764;2023-04-15T06:51:10;98810.41;;;10.14
43802;BMP280;29429;51.074;13.764;2023-04-15T06:59:07;98826.03;;;10.22
43802;BMP280;29429;51.074;13.764;2023-04-15T07:03:02;98820.25;;;10.25
43802;BMP280;29429;51.074;13.764;2023-04-15T07:10:32;98826.91;;;10.34
43802;BMP280;29429;51.074;13.764;2023-04-15T07:13:52;98834.59;;;10.42
43802;BMP280;29429;51.074;13.764;2023-04-15T07:17:08;98842.72;;;10.47
43802;BMP280;29429;51.074;13.764;2023-04-15T07:25:00;98830.41;;;10.34
43802;BMP280;29429;51.074;13.764;2023-04-15T07:27:35;98842.66;;;10.54
43802;BMP280;29429;51.074;13.764;2023-04-15T07:30:21;98838.22;;;10.59
43802;BMP280;29429;51.074;13.764;2023-04-15T07:33:02;98840.25;;;10.64
43802;BMP280;29429;51.074;13.764;2023-04-15T07:35:52;98848.13;;;10.70
43802;BMP280;29429;51.074;13.764;2023-04-15T07:39:03;98856.44;;;10.62
43802;BMP280;29429;51.074;13.764;2023-04-15T07:43:22;98857.84;;;10.65
43802;BMP280;29429;51.074;13.764;2023-04-15T08:18:19;98883.69;;;11.70
43802;BMP280;29429;51.074;13.764;2023-04-15T08:20:46;98893.31;;;11.83
43802;BMP280;29429;51.074;13.764;2023-04-15T08:23:13;98889.00;;;11.93
43802;BMP280;29429;51.074;13.764;2023-04-15T08:25:40;98893.72;;;12.03
43802;BMP280;29429;51.074;13.764;2023-04-15T08:28:08;98900.72;;;12.04
43802;BMP280;29429;51.074;13.764;2023-04-15T08:30:35;98906.53;;;12.12
43802;BMP280;29429;51.074;13.764;2023-04-15T08:33:02;98897.41;;;12.25
43802;BMP280;29429;51.074;13.764;2023-04-15T08:35:29;98897.47;;;12.42
43802;BMP280;29429;51.074;13.764;2023-04-15T08:37:59;98895.81;;;12.52
43802;BMP280;29429;51.074;13.764;2023-04-15T08:40:40;98898.44;;;12.64
43802;BMP280;29429;51.074;13.764;2023-04-15T08:43:27;98900.31;;;12.63
43802;BMP280;29429;51.074;13.764;2023-04-15T08:45:56;98894.34;;;12.73
43802;BMP280;29429;51.074;13.764;2023-04-15T08:48:28;98908.94;;;12.82
43802;BMP280;29429;51.074;13.764;2023-04-15T08:50:59;98901.69;;;12.94
43802;BMP280;29429;51.074;13.764;2023-04-15T08:53:29;98907.53;;;12.91
43802;BMP280;29429;51.074;13.764;2023-04-15T08:56:03;98911.88;;;12.80
43802;BMP280;29429;51.074;13.764;2023-04-15T08:58:35;98915.41;;;12.69
43802;BMP280;29429;51.074;13.764;2023-04-15T09:01:02;98923.28;;;12.48
43802;BMP280;29429;51.074;13.764;2023-04-15T09:03:33;98923.09;;;12.26
43802;BMP280;29429;51.074;13.764;2023-04-15T09:06:04;98920.34;;;12.09
43802;BMP280;29429;51.074;13.764;2023-04-15T09:08:33;98923.84;;;11.98
43802;BMP280;29429;51.074;13.764;2023-04-15T09:11:03;98924.66;;;11.87
43802;BMP280;29429;51.074;13.764;2023-04-15T09:13:31;98924.91;;;11.74
43802;BMP280;29429;51.074;13.764;2023-04-15T09:16:05;98930.69;;;11.71
43802;BMP280;29429;51.074;13.764;2023-04-15T09:18:37;98929.97;;;11.64
43802;BMP280;29429;51.074;13.764;2023-04-15T09:21:15;98933.09;;;11.61
43802;BMP280;29429;51.074;13.764;2023-04-15T09:23:57;98937.31;;;11.69
43802;BMP280;29429;51.074;13.764;2023-04-15T09:26:35;98944.47;;;11.68
43802;BMP280;29429;51.074;13.764;2023-04-15T09:29:08;98939.38;;;11.67
43802;BMP280;29429;51.074;13.764;2023-04-15T09:31:36;98935.06;;;11.66
43802;BMP280;29429;51.074;13.764;2023-04-15T09:34:04;98951.03;;;11.72
43802;BMP280;29429;51.074;13.764;2023-04-15T09:39:18;98948.66;;;11.52
43802;BMP280;29429;51.074;13.764;2023-04-15T09:41:46;98953.06;;;11.47
43802;BMP280;29429;51.074;13.764;2023-04-15T09:44:24;98961.66;;;11.49
43802;BMP280;29429;51.074;13.764;2023-04-15T09:46:52;98969.28;;;11.34
43802;BMP280;29429;51.074;13.764;2023-04-15T09:49:19;98972.41;;;11.31
43802;BMP280;29429;51.074;13.764;2023-04-15T09:51:46;98963.44;;;11.14
43802;BMP280;29429;51.074;13.764;2023-04-15T09:54:37;98969.78;;;11.01
43802;BMP280;29429;51.074;13.764;2023-04-15T09:57:08;98975.19;;;10.94
43802;BMP280;29429;51.074;13.764;2023-04-15T09:59:41;98957.91;;;10.97
43802;BMP280;29429;51.074;13.764;2023-04-15T10:02:17;98963.16;;;11.04
43802;BMP280;29429;51.074;13.764;2023-04-15T10:05:00;98973.03;;;11.15
43802;BMP280;29429;51.074;13.764;2023-04-15T10:07:32;98966.22;;;11.19
43802;BMP280;29429;51.074;13.764;2023-04-15T10:10:08;98973.22;;;11.20
43802;BMP280;29429;51.074;13.764;2023-04-15T10:12:53;98977.72;;;11.19
43802;BMP280;29429;51.074;13.764;2023-04-15T10:15:30;98991.41;;;11.23
43802;BMP280;29429;51.074;13.764;2023-04-15T10:18:13;98986.38;;;11.15
43802;BMP280;29429;51.074;13.764;2023-04-15T10:21:11;98993.16;;;11.29
43802;BMP280;29429;51.074;13.764;2023-04-15T10:23:50;99000.97;;;11.42
43802;BMP280;29429;51.074;13.764;2023-04-15T10:26:19;98989.47;;;11.41
43802;BMP280;29429;51.074;13.764;2023-04-15T10:28:46;98995.97;;;11.34
43802;BMP280;29429;51.074;13.764;2023-04-15T10:31:15;98998.75;;;11.39
43802;BMP280;29429;51.074;13.764;2023-04-15T10:33:47;99000.66;;;11.38
43802;BMP280;29429;51.074;13.764;2023-04-15T10:36:18;98994.63;;;11.43
43802;BMP280;29429;51.074;13.764;2023-04-15T10:38:46;99000.28;;;11.46
43802;BMP280;29429;51.074;13.764;2023-04-15T10:45:00;98993.41;;;11.39
43802;BMP280;29429;51.074;13.764;2023-04-15T10:48:06;98997.97;;;11.50
43802;BMP280;29429;51.074;13.764;2023-04-15T10:56:29;99004.44;;;11.72
43802;BMP280;29429;51.074;13.764;2023-04-15T10:59:19;99003.41;;;11.85
43802;BMP280;29429;51.074;13.764;2023-04-15T11:02:14;99005.16;;;12.02
43802;BMP280;29429;51.074;13.764;2023-04-15T11:07:04;99012.25;;;12.20
43802;BMP280;29429;51.074;13.764;2023-04-15T11:11:17;99017.81;;;12.30
43802;BMP280;29429;51.074;13.764;2023-04-15T11:13:58;99012.38;;;12.25
43802;BMP280;29429;51.074;13.764;2023-04-15T11:16:27;99021.53;;;12.29
43802;BMP280;29429;51.074;13.764;2023-04-15T11:19:10;99021.06;;;12.32
43802;BMP280;29429;51.074;13.764;2023-04-15T11:21:40;99020.41;;;12.25
43802;BMP280;29429;51.074;13.764;2023-04-15T11:24:08;99026.06;;;12.40
43802;BMP280;29429;51.074;13.764;2023-04-15T11:26:35;99033.63;;;12.55
43802;BMP280;29429;51.074;13.764;2023-04-15T11:29:03;99028.69;;;12.63
43802;BMP280;29429;51.074;13.764;2023-04-15T11:31:31;99035.91;;;12.74
43802;BMP280;29429;51.074;13.764;2023-04-15T11:33:59;99037.66;;;12.69
43802;BMP280;29429;51.074;13.764;2023-04-15T11:36:30;99044.16;;;12.73
43802;BMP280;29429;51.074;13.764;2023-04-15T11:38:59;99039.28;;;12.70
43802;BMP280;29429;51.074;13.764;2023-04-15T11:41:26;99032.50;;;12.79
43802;BMP280;29429;51.074;13.764;2023-04-15T11:43:53;99044.84;;;12.80
43802;BMP280;29429;51.074;13.764;2023-04-15T11:46:27;99049.00;;;12.88
43802;BMP280;29429;51.074;13.764;2023-04-15T11:48:54;99041.19;;;12.98
43802;BMP280;29429;51.074;13.764;2023-04-15T11:51:25;99051.75;;;13.04
43802;BMP280;29429;51.074;13.764;2023-04-15T11:53:57;99045.00;;;13.13
43802;BMP280;29429;51.074;13.764;2023-04-15T11:57:05;99054.41;;;13.16
43802;BMP280;29429;51.074;13.764;2023-04-15T11:59:43;99052.00;;;13.14
43802;BMP280;29429;51.074;13.764;2023-04-15T12:02:12;99062.13;;;13.01
43802;BMP280;29429;51.074;13.764;2023-04-15T12:04:40;99057.50;;;13.08
43802;BMP280;29429;51.074;13.764;2023-04-15T12:07:08;99061.22;;;13.07
43802;BMP280;29429;51.074;13.764;2023-04-15T12:19:40;99079.88;;;12.78
43802;BMP280;29429;51.074;13.764;2023-04-15T12:29:10;99089.63;;;13.08
43802;BMP280;29429;51.074;13.764;2023-04-15T12:33:14;99094.19;;;13.24
43802;BMP280;29429;51.074;13.764;2023-04-15T12:37:47;99098.00;;;13.39
43802;BMP280;29429;51.074;13.764;2023-04-15T12:41:10;99100.44;;;13.41
43802;BMP280;29429;51.074;13.764;2023-04-15T12:43:48;99094.06;;;13.30
43802;BMP280;29429;51.074;13.764;2023-04-15T12:47:48;99106.09;;;13.16
43802;BMP280;29429;51.074;13.764;2023-04-15T12:51:06;99099.03;;;13.10
43802;BMP280;29429;51.074;13.764;2023-04-15T12:53:36;99099.03;;;12.99
43802;BMP280;29429;51.074;13.764;2023-04-15T12:56:32;99098.56;;;13.02
43802;BMP280;29429;51.074;13.764;2023-04-15T12:59:00;99118.44;;;13.17
43802;BMP280;29429;51.074;13.764;2023-04-15T13:01:37;99102.59;;;13.27
43802;BMP280;29429;51.074;13.764;2023-04-15T13:04:26;99113.75;;;13.36
43802;BMP280;29429;51.074;13.764;2023-04-15T13:07:16;99127.94;;;13.36
43802;BMP280;29429;51.074;13.764;2023-04-15T13:09:43;99124.53;;;13.41
43802;BMP280;29429;51.074;13.764;2023-04-15T13:12:30;99125.47;;;13.47
43802;BMP280;29429;51.074;13.764;2023-04-15T13:15:47;99123.34;;;13.49
43802;BMP280;29429;51.074;13.764;2023-04-15T13:18:18;99118.47;;;13.46
43802;BMP280;29429;51.074;13.764;2023-04-15T13:20:45;99135.91;;;13.60
43802;BMP280;29429;51.074;13.764;2023-04-15T13:23:12;99135.81;;;13.55
43802;BMP280;29429;51.074;13.764;2023-04-15T13:25:56;99137.41;;;13.56
43802;BMP280;29429;51.074;13.764;2023-04-15T13:28:24;99136.47;;;13.62
43802;BMP280;29429;51.074;13.764;2023-04-15T13:30:52;99133.34;;;13.81
43802;BMP280;29429;51.074;13.764;2023-04-15T13:33:19;99144.28;;;14.08
43802;BMP280;29429;51.074;13.764;2023-04-15T13:35:46;99134.03;;;14.22
43802;BMP280;29429;51.074;13.764;2023-04-15T13:38:13;99136.84;;;14.43
43802;BMP280;29429;51.074;13.764;2023-04-15T13:40:40;99143.66;;;14.68
43802;BMP280;29429;51.074;13.764;2023-04-15T13:43:07;99134.41;;;14.97
43802;BMP280;29429;51.074;13.764;2023-04-15T13:45:34;99148.41;;;15.20
43802;BMP280;29429;51.074;13.764;2023-04-15T13:48:02;99150.16;;;15.32
43802;BMP280;29429;51.074;13.764;2023-04-15T13:50:29;99147.50;;;15.53
43802;BMP280;29429;51.074;13.764;2023-04-15T14:06:53;99148.00;;;15.50
43802;BMP280;29429;51.074;13.764;2023-04-15T14:13:58;99153.50;;;15.60
43802;BMP280;29429;51.074;13.764;2023-04-15T14:36:05;99189.44;;;15.54
43802;BMP280;29429;51.074;13.764;2023-04-15T14:38:36;99191.69;;;15.41
43802;BMP280;29429;51.074;13.764;2023-04-15T14:46:02;99182.09;;;15.28
43802;BMP280;29429;51.074;13.764;2023-04-15T14:53:49;99199.91;;;15.34
43802;BMP280;29429;51.074;13.764;2023-04-15T14:56:16;99208.31;;;15.21
43802;BMP280;29429;51.074;13.764;2023-04-15T14:58:43;99206.81;;;15.08
43802;BMP280;29429;51.074;13.764;2023-04-15T15:01:10;99219.75;;;15.11
43802;BMP280;29429;51.074;13.764;2023-04-15T15:03:38;99222.13;;;15.08
43802;BMP280;29429;51.074;13.764;2023-04-15T15:06:05;99223.81;;;15.14
43802;BMP280;29429;51.074;13.764;2023-04-15T15:08:32;99221.44;;;15.17
43802;BMP280;29429;51.074;13.764;2023-04-15T15:10:59;99227.88;;;15.16
43802;BMP280;29429;51.074;13.764;2023-04-15T15:13:26;99226.50;;;15.14
43802;BMP280;29429;51.074;13.764;2023-04-15T15:15:55;99220.81;;;15.10
43802;BMP280;29429;51.074;13.764;2023-04-15T15:18:22;99235.69;;;15.18
43802;BMP280;29429;51.074;13.764;2023-04-15T15:20:51;99231.94;;;15.19
43802;BMP280;29429;51.074;13.764;2023-04-15T15:23:18;99235.41;;;14.98
43802;BMP280;29429;51.074;13.764;2023-04-15T15:25:45;99244.91;;;15.05
43802;BMP280;29429;51.074;13.764;2023-04-15T15:28:13;99243.34;;;15.09
43802;BMP280;29429;51.074;13.764;2023-04-15T15:30:40;99244.84;;;15.00
43802;BMP280;29429;51.074;13.764;2023-04-15T15:33:07;99239.63;;;14.94
43802;BMP280;29429;51.074;13.764;2023-04-15T15:35:38;99245.47;;;14.91
43802;BMP280;29429;51.074;13.764;2023-04-15T15:38:06;99253.63;;;14.79
43802;BMP280;29429;51.074;13.764;2023-04-15T15:40:33;99256.22;;;14.91
43802;BMP280;29429;51.074;13.764;2023-04-15T15:43:00;99262.25;;;14.98
43802;BMP280;29429;51.074;13.764;2023-04-15T15:45:27;99260.63;;;14.97
43802;BMP280;29429;51.074;13.764;2023-04-15T15:48:07;99267.69;;;14.86
43802;BMP280;29429;51.074;13.764;2023-04-15T15:50:34;99272.66;;;14.78
43802;BMP280;29429;51.074;13.764;2023-04-15T15:53:01;99265.50;;;14.67
43802;BMP280;29429;51.074;13.764;2023-04-15T15:55:28;99274.59;;;14.66
43802;BMP280;29429;51.074;13.764;2023-04-15T15:57:55;99276.03;;;14.56
43802;BMP280;29429;51.074;13.764;2023-04-15T16:00:23;99274.25;;;14.45
43802;BMP280;29429;51.074;13.764;2023-04-15T16:02:56;99280.84;;;14.26
43802;BMP280;29429;51.074;13.764;2023-04-15T16:05:26;99279.88;;;14.04
43802;BMP280;29429;51.074;13.764;2023-04-15T16:07:53;99279.53;;;14.00
43802;BMP280;29429;51.074;13.764;2023-04-15T16:10:20;99281.88;;;13.97
43802;BMP280;29429;51.074;13.764;2023-04-15T16:12:47;99289.59;;;13.93
43802;BMP280;29429;51.074;13.764;2023-04-15T16:15:14;99289.03;;;13.80
43802;BMP280;29429;51.074;13.764;2023-04-15T16:17:41;99291.97;;;13.67
43802;BMP280;29429;51.074;13.764;2023-04-15T16:20:09;99293.88;;;13.55
43802;BMP280;29429;51.074;13.764;2023-04-15T16:22:36;99298.88;;;13.51
43802;BMP280;29429;51.074;13.764;2023-04-15T16:25:03;99295.47;;;13.56
43802;BMP280;29429;51.074;13.764;2023-04-15T16:27:31;99295.94;;;13.64
43802;BMP280;29429;51.074;13.764;2023-04-15T16:30:01;99303.97;;;13.64
43802;BMP280;29429;51.074;13.764;2023-04-15T16:32:28;99307.59;;;13.58
43802;BMP280;29429;51.074;13.764;2023-04-15T16:34:54;99311.22;;;13.52
43802;BMP280;29429;51.074;13.764;2023-04-15T16:37:21;99308.19;;;13.49
43802;BMP280;29429;51.074;13.764;2023-04-15T16:39:48;99319.72;;;13.49
43802;BMP280;29429;51.074;13.764;2023-04-15T16:42:15;99317.03;;;13.37
43802;BMP280;29429;51.074;13.764;2023-04-15T16:44:43;99320.69;;;13.31
43802;BMP280;29429;51.074;13.764;2023-04-15T16:47:09;99312.38;;;13.21
43802;BMP280;29429;51.074;13.764;2023-04-15T16:49:37;99322.97;;;13.16
43802;BMP280;29429;51.074;13.764;2023-04-15T16:52:04;99329.84;;;13.12
43802;BMP280;29429;51.074;13.764;2023-04-15T16:54:31;99343.69;;;13.09
43802;BMP280;29429;51.074;13.764;2023-04-15T16:57:00;99341.69;;;13.05
43802;BMP280;29429;51.074;13.764;2023-04-15T16:59:28;99334.81;;;12.97
43802;BMP280;29429;51.074;13.764;2023-04-15T17:01:55;99341.41;;;12.95